sensor_id;sensor_type;location;lat;lon;timestamp;temperature;humidity
51793;DHT22;37850;53.178;6.376;2022-08-19T00:00:07;14.50;99.90
51793;DHT22;37850;53.178;6.376;2022-08-19T00:02:33;14.50;99.90
51793;DHT22;37850;53.178;6.376;2022-08-19T00:04:59;14.50;99.90
51793;DHT22;37850;53.178;6.376;2022-08-19T00:07:25;14.50;99.90
51793;DHT22;37850;53.178;6.376;2022-08-19T00:09:50;14.50;99.90
51793;DHT22;37850;53.178;6.376;2022-08-19T00:12:16;14.50;99.90
51793;DHT22;37850;53.178;6.376;2022-08-19T00:14:43;14.40;99.90
51793;DHT22;37850;53.178;6.376;2022-08-19T00:17:08;14.40;99.90
51793;DHT22;37850;53.178;6.376;2022-08-19T00:19:34;14.50;99.90
51793;DHT22;37850;53.178;6.376;2022-08-19T00:22:03;14.50;99.90
51793;DHT22;37850;53.178;6.376;2022-08-19T00:24:31;14.50;99.90
51793;DHT22;37850;53.178;6.376;2022-08-19T00:26:56;14.50;99.90
51793;DHT22;37850;53.178;6.376;2022-08-19T00:29:23;14.60;99.90
51793;DHT22;37850;53.178;6.376;2022-08-19T00:31:49;14.50;99.90
51793;DHT22;37850;53.178;6.376;2022-08-19T00:34:15;14.40;99.90
51793;DHT22;37850;53.178;6.376;2022-08-19T00:36:41;14.40;99.90
51793;DHT22;37850;53.178;6.376;2022-08-19T00:39:07;14.40;99.90
51793;DHT22;37850;53.178;6.376;2022-08-19T00:41:33;14.40;99.90
51793;DHT22;37850;53.178;6.376;2022-08-19T00:44:00;14.40;99.90
51793;DHT22;37850;53.178;6.376;2022-08-19T00:46:27;14.40;99.90
51793;DHT22;37850;53.178;6.376;2022-08-19T00:48:53;14.40;99.90
51793;DHT22;37850;53.178;6.376;2022-08-19T00:51:19;14.20;99.90
51793;DHT22;37850;53.178;6.376;2022-08-19T00:53:45;14.20;99.90
51793;DHT22;37850;53.178;6.376;2022-08-19T00:56:11;14.20;99.90
51793;DHT22;37850;53.178;6.376;2022-08-19T00:58:36;14.20;99.90
51793;DHT22;37850;53.178;6.376;2022-08-19T01:01:03;14.10;99.90
51793;DHT22;37850;53.178;6.376;2022-08-19T01:03:29;14.10;99.90
51793;DHT22;37850;53.178;6.376;2022-08-19T01:05:54;14.10;99.90
51793;DHT22;37850;53.178;6.376;2022-08-19T01:08:20;14.10;99.90
51793;DHT22;37850;53.178;6.376;2022-08-19T01:10:47;14.00;99.90
51793;DHT22;37850;53.178;6.376;2022-08-19T01:13:17;13.90;99.90
51793;DHT22;37850;53.178;6.376;2022-08-19T01:15:45;13.90;99.90
51793;DHT22;37850;53.178;6.376;2022-08-19T01:18:13;14.00;99.90
51793;DHT22;37850;53.178;6.376;2022-08-19T01:20:39;13.90;99.90
51793;DHT22;37850;53.178;6.376;2022-08-19T01:23:05;13.90;99.90
51793;DHT22;37850;53.178;6.376;2022-08-19T01:25:35;13.90;99.90
51793;DHT22;37850;53.178;6.376;2022-08-19T01:28:02;13.80;99.90
51793;DHT22;37850;53.178;6.376;2022-08-19T01:30:31;13.80;99.90
51793;DHT22;37850;53.178;6.376;2022-08-19T01:32:57;13.80;99.90
51793;DHT22;37850;53.178;6.376;2022-08-19T01:35:24;13.70;99.90
51793;DHT22;37850;53.178;6.376;2022-08-19T01:37:51;13.70;99.90
51793;DHT22;37850;53.178;6.376;2022-08-19T01:40:18;13.70;99.90
51793;DHT22;37850;53.178;6.376;2022-08-19T01:42:48;13.70;99.90
51793;DHT22;37850;53.178;6.376;2022-08-19T01:45:14;13.60;99.90
51793;DHT22;37850;53.178;6.376;2022-08-19T01:47:40;13.60;99.90
51793;DHT22;37850;53.178;6.376;2022-08-19T01:50:06;14.10;99.90
51793;DHT22;37850;53.178;6.376;2022-08-19T01:52:35;13.50;99.90
51793;DHT22;37850;53.178;6.376;2022-08-19T01:55:01;13.80;99.90
51793;DHT22;37850;53.178;6.376;2022-08-19T01:57:26;13.50;99.90
51793;DHT22;37850;53.178;6.376;2022-08-19T01:59:52;13.50;99.90
51793;DHT22;37850;53.178;6.376;2022-08-19T02:02:19;13.50;99.90
51793;DHT22;37850;53.178;6.376;2022-08-19T02:04:44;13.60;99.90
51793;DHT22;37850;53.178;6.376;2022-08-19T02:07:11;13.50;99.90
51793;DHT22;37850;53.178;6.376;2022-08-19T02:09:36;13.50;99.90
51793;DHT22;37850;53.178;6.376;2022-08-19T02:12:03;13.40;99.90
51793;DHT22;37850;53.178;6.376;2022-08-19T02:14:28;13.50;99.90
51793;DHT22;37850;53.178;6.376;2022-08-19T02:16:54;13.50;99.90
51793;DHT22;37850;53.178;6.376;2022-08-19T02:19:19;13.50;99.90
51793;DHT22;37850;53.178;6.376;2022-08-19T02:21:45;13.50;99.90
51793;DHT22;37850;53.178;6.376;2022-08-19T02:24:11;13.50;99.90
51793;DHT22;37850;53.178;6.376;2022-08-19T02:26:37;13.60;99.90
51793;DHT22;37850;53.178;6.376;2022-08-19T02:29:03;13.60;99.90
51793;DHT22;37850;53.178;6.376;2022-08-19T02:31:28;13.60;99.90
51793;DHT22;37850;53.178;6.376;2022-08-19T02:33:54;13.60;99.90
51793;DHT22;37850;53.178;6.376;2022-08-19T02:36:20;13.60;99.90
51793;DHT22;37850;53.178;6.376;2022-08-19T02:38:46;13.60;99.90
51793;DHT22;37850;53.178;6.376;2022-08-19T02:41:16;13.60;99.90
51793;DHT22;37850;53.178;6.376;2022-08-19T02:43:43;13.60;99.90
51793;DHT22;37850;53.178;6.376;2022-08-19T02:46:16;13.60;99.90
51793;DHT22;37850;53.178;6.376;2022-08-19T02:48:43;13.60;99.90
51793;DHT22;37850;53.178;6.376;2022-08-19T02:51:09;13.60;99.90
51793;DHT22;37850;53.178;6.376;2022-08-19T02:53:40;13.60;99.90
51793;DHT22;37850;53.178;6.376;2022-08-19T02:56:07;13.70;99.90
51793;DHT22;37850;53.178;6.376;2022-08-19T02:58:33;13.60;99.90
51793;DHT22;37850;53.178;6.376;2022-08-19T03:00:58;14.00;99.90
51793;DHT22;37850;53.178;6.376;2022-08-19T03:03:24;13.60;99.90
51793;DHT22;37850;53.178;6.376;2022-08-19T03:05:50;13.60;99.90
51793;DHT22;37850;53.178;6.376;2022-08-19T03:08:15;13.60;99.90
51793;DHT22;37850;53.178;6.376;2022-08-19T03:10:42;13.60;99.90
51793;DHT22;37850;53.178;6.376;2022-08-19T03:13:10;13.60;99.90
51793;DHT22;37850;53.178;6.376;2022-08-19T03:15:38;13.40;99.90
51793;DHT22;37850;53.178;6.376;2022-08-19T03:18:04;13.60;99.90
51793;DHT22;37850;53.178;6.376;2022-08-19T03:20:30;13.60;99.90
51793;DHT22;37850;53.178;6.376;2022-08-19T03:22:56;13.60;99.90
51793;DHT22;37850;53.178;6.376;2022-08-19T03:25:21;13.60;99.90
51793;DHT22;37850;53.178;6.376;2022-08-19T03:27:47;13.60;99.90
51793;DHT22;37850;53.178;6.376;2022-08-19T03:30:14;13.70;99.90
51793;DHT22;37850;53.178;6.376;2022-08-19T03:32:39;13.60;99.90
51793;DHT22;37850;53.178;6.376;2022-08-19T03:35:05;13.60;99.90
51793;DHT22;37850;53.178;6.376;2022-08-19T03:37:31;13.60;99.90
51793;DHT22;37850;53.178;6.376;2022-08-19T03:39:59;13.60;99.90
51793;DHT22;37850;53.178;6.376;2022-08-19T03:42:24;13.60;99.90
51793;DHT22;37850;53.178;6.376;2022-08-19T03:44:52;13.50;99.90
51793;DHT22;37850;53.178;6.376;2022-08-19T03:47:17;13.50;99.90
51793;DHT22;37850;53.178;6.376;2022-08-19T03:49:43;13.60;99.90
51793;DHT22;37850;53.178;6.376;2022-08-19T03:52:09;13.60;99.90
51793;DHT22;37850;53.178;6.376;2022-08-19T03:54:36;13.50;99.90
51793;DHT22;37850;53.178;6.376;2022-08-19T03:57:03;13.50;99.90
51793;DHT22;37850;53.178;6.376;2022-08-19T03:59:30;13.50;99.90
51793;DHT22;37850;53.178;6.376;2022-08-19T04:01:57;13.50;99.90
51793;DHT22;37850;53.178;6.376;2022-08-19T04:04:23;13.60;99.90
51793;DHT22;37850;53.178;6.376;2022-08-19T04:06:48;13.60;99.90
51793;DHT22;37850;53.178;6.376;2022-08-19T04:09:14;13.50;99.90
51793;DHT22;37850;53.178;6.376;2022-08-19T04:11:41;13.50;99.90
51793;DHT22;37850;53.178;6.376;2022-08-19T04:14:08;13.60;99.90
51793;DHT22;37850;53.178;6.376;2022-08-19T04:16:34;13.50;99.90
51793;DHT22;37850;53.178;6.376;2022-08-19T04:19:00;13.60;99.90
51793;DHT22;37850;53.178;6.376;2022-08-19T04:21:26;13.50;99.90
51793;DHT22;37850;53.178;6.376;2022-08-19T04:23:53;13.50;99.90
51793;DHT22;37850;53.178;6.376;2022-08-19T04:26:29;13.50;99.90
51793;DHT22;37850;53.178;6.376;2022-08-19T04:28:57;13.50;99.90
51793;DHT22;37850;53.178;6.376;2022-08-19T04:31:24;13.50;99.90
51793;DHT22;37850;53.178;6.376;2022-08-19T04:33:52;13.50;99.90
51793;DHT22;37850;53.178;6.376;2022-08-19T04:36:19;13.50;99.90
51793;DHT22;37850;53.178;6.376;2022-08-19T04:38:46;13.50;99.90
51793;DHT22;37850;53.178;6.376;2022-08-19T04:41:12;13.50;99.90
51793;DHT22;37850;53.178;6.376;2022-08-19T04:43:56;13.50;99.90
51793;DHT22;37850;53.178;6.376;2022-08-19T04:46:22;13.50;99.90
51793;DHT22;37850;53.178;6.376;2022-08-19T04:48:47;13.60;99.90
51793;DHT22;37850;53.178;6.376;2022-08-19T04:51:13;13.70;99.90
51793;DHT22;37850;53.178;6.376;2022-08-19T04:53:39;13.60;99.90
51793;DHT22;37850;53.178;6.376;2022-08-19T04:56:09;13.60;99.90
51793;DHT22;37850;53.178;6.376;2022-08-19T04:58:36;13.60;99.90
51793;DHT22;37850;53.178;6.376;2022-08-19T05:01:02;13.60;99.90
51793;DHT22;37850;53.178;6.376;2022-08-19T05:03:28;13.80;99.90
51793;DHT22;37850;53.178;6.376;2022-08-19T05:05:56;13.70;99.90
51793;DHT22;37850;53.178;6.376;2022-08-19T05:08:21;13.70;99.90
51793;DHT22;37850;53.178;6.376;2022-08-19T05:10:48;13.80;99.90
51793;DHT22;37850;53.178;6.376;2022-08-19T05:13:14;14.40;99.90
51793;DHT22;37850;53.178;6.376;2022-08-19T05:15:40;13.80;99.90
51793;DHT22;37850;53.178;6.376;2022-08-19T05:18:06;13.90;99.90
51793;DHT22;37850;53.178;6.376;2022-08-19T05:20:50;14.00;99.90
51793;DHT22;37850;53.178;6.376;2022-08-19T05:23:35;14.20;99.90
51793;DHT22;37850;53.178;6.376;2022-08-19T05:26:00;14.60;99.90
51793;DHT22;37850;53.178;6.376;2022-08-19T05:28:26;14.50;99.90
51793;DHT22;37850;53.178;6.376;2022-08-19T05:30:52;14.50;99.90
51793;DHT22;37850;53.178;6.376;2022-08-19T05:33:20;14.60;99.90
51793;DHT22;37850;53.178;6.376;2022-08-19T05:35:47;14.80;99.90
51793;DHT22;37850;53.178;6.376;2022-08-19T05:38:13;14.80;99.90
51793;DHT22;37850;53.178;6.376;2022-08-19T05:40:39;14.80;99.90
51793;DHT22;37850;53.178;6.376;2022-08-19T05:43:08;15.10;99.90
51793;DHT22;37850;53.178;6.376;2022-08-19T05:45:37;15.00;99.90
51793;DHT22;37850;53.178;6.376;2022-08-19T05:48:03;15.10;99.90
51793;DHT22;37850;53.178;6.376;2022-08-19T05:50:29;15.20;99.90
51793;DHT22;37850;53.178;6.376;2022-08-19T05:52:55;15.30;99.90
51793;DHT22;37850;53.178;6.376;2022-08-19T05:55:20;15.30;99.90
51793;DHT22;37850;53.178;6.376;2022-08-19T05:57:47;15.40;99.90
51793;DHT22;37850;53.178;6.376;2022-08-19T06:00:13;15.50;99.90
51793;DHT22;37850;53.178;6.376;2022-08-19T06:02:40;15.60;99.90
51793;DHT22;37850;53.178;6.376;2022-08-19T06:05:06;15.70;99.90
51793;DHT22;37850;53.178;6.376;2022-08-19T06:07:37;15.70;99.90
51793;DHT22;37850;53.178;6.376;2022-08-19T06:10:04;15.80;99.90
51793;DHT22;37850;53.178;6.376;2022-08-19T06:12:34;15.80;99.90
51793;DHT22;37850;53.178;6.376;2022-08-19T06:15:00;16.00;99.90
51793;DHT22;37850;53.178;6.376;2022-08-19T06:17:27;16.00;99.90
51793;DHT22;37850;53.178;6.376;2022-08-19T06:19:54;16.10;99.90
51793;DHT22;37850;53.178;6.376;2022-08-19T06:22:19;16.10;99.90
51793;DHT22;37850;53.178;6.376;2022-08-19T06:24:45;16.30;99.90
51793;DHT22;37850;53.178;6.376;2022-08-19T06:27:11;16.30;99.90
51793;DHT22;37850;53.178;6.376;2022-08-19T06:29:36;16.40;99.90
51793;DHT22;37850;53.178;6.376;2022-08-19T06:32:03;16.50;99.90
51793;DHT22;37850;53.178;6.376;2022-08-19T06:34:29;16.60;99.90
51793;DHT22;37850;53.178;6.376;2022-08-19T06:36:59;16.70;99.90
51793;DHT22;37850;53.178;6.376;2022-08-19T06:39:29;17.40;99.90
51793;DHT22;37850;53.178;6.376;2022-08-19T06:41:56;17.50;99.90
51793;DHT22;37850;53.178;6.376;2022-08-19T06:44:23;17.50;99.90
51793;DHT22;37850;53.178;6.376;2022-08-19T06:46:50;17.50;99.90
51793;DHT22;37850;53.178;6.376;2022-08-19T06:49:16;17.50;99.90
51793;DHT22;37850;53.178;6.376;2022-08-19T06:51:45;17.70;99.90
51793;DHT22;37850;53.178;6.376;2022-08-19T06:54:13;17.60;99.90
51793;DHT22;37850;53.178;6.376;2022-08-19T06:56:39;17.60;99.90
51793;DHT22;37850;53.178;6.376;2022-08-19T06:59:06;17.70;99.90
51793;DHT22;37850;53.178;6.376;2022-08-19T07:01:36;17.70;99.90
51793;DHT22;37850;53.178;6.376;2022-08-19T07:04:03;17.80;99.90
51793;DHT22;37850;53.178;6.376;2022-08-19T07:06:28;17.90;99.90
51793;DHT22;37850;53.178;6.376;2022-08-19T07:08:56;17.90;99.90
51793;DHT22;37850;53.178;6.376;2022-08-19T07:11:23;18.00;99.90
51793;DHT22;37850;53.178;6.376;2022-08-19T07:13:49;18.00;99.90
51793;DHT22;37850;53.178;6.376;2022-08-19T07:16:16;18.10;99.90
51793;DHT22;37850;53.178;6.376;2022-08-19T07:18:42;18.20;99.90
51793;DHT22;37850;53.178;6.376;2022-08-19T07:21:12;18.30;99.90
51793;DHT22;37850;53.178;6.376;2022-08-19T07:23:38;18.40;99.90
51793;DHT22;37850;53.178;6.376;2022-08-19T07:26:08;18.50;99.90
51793;DHT22;37850;53.178;6.376;2022-08-19T07:28:34;18.70;99.90
51793;DHT22;37850;53.178;6.376;2022-08-19T07:31:07;19.00;99.90
51793;DHT22;37850;53.178;6.376;2022-08-19T07:33:33;19.40;99.90
51793;DHT22;37850;53.178;6.376;2022-08-19T07:36:05;19.70;99.90
51793;DHT22;37850;53.178;6.376;2022-08-19T07:38:31;20.00;99.90
51793;DHT22;37850;53.178;6.376;2022-08-19T07:40:57;20.40;99.90
51793;DHT22;37850;53.178;6.376;2022-08-19T07:43:23;20.70;99.90
51793;DHT22;37850;53.178;6.376;2022-08-19T07:45:52;21.00;99.90
51793;DHT22;37850;53.178;6.376;2022-08-19T07:48:22;21.40;99.90
51793;DHT22;37850;53.178;6.376;2022-08-19T07:50:50;21.70;99.90
51793;DHT22;37850;53.178;6.376;2022-08-19T07:53:16;21.90;99.90
51793;DHT22;37850;53.178;6.376;2022-08-19T07:55:43;22.30;99.90
51793;DHT22;37850;53.178;6.376;2022-08-19T07:58:11;22.70;99.90
51793;DHT22;37850;53.178;6.376;2022-08-19T08:00:49;23.00;99.90
51793;DHT22;37850;53.178;6.376;2022-08-19T08:03:17;23.40;99.90
51793;DHT22;37850;53.178;6.376;2022-08-19T08:05:43;23.80;99.90
51793;DHT22;37850;53.178;6.376;2022-08-19T08:08:28;23.90;99.90
51793;DHT22;37850;53.178;6.376;2022-08-19T08:11:12;24.00;99.90
51793;DHT22;37850;53.178;6.376;2022-08-19T08:13:38;24.10;99.90
51793;DHT22;37850;53.178;6.376;2022-08-19T08:18:36;24.50;99.90
51793;DHT22;37850;53.178;6.376;2022-08-19T08:21:09;24.70;99.90
51793;DHT22;37850;53.178;6.376;2022-08-19T08:23:35;24.80;99.90
51793;DHT22;37850;53.178;6.376;2022-08-19T08:26:01;25.00;99.90
51793;DHT22;37850;53.178;6.376;2022-08-19T08:28:27;25.20;99.90
51793;DHT22;37850;53.178;6.376;2022-08-19T08:30:53;25.50;99.90
51793;DHT22;37850;53.178;6.376;2022-08-19T08:35:49;25.80;99.90
51793;DHT22;37850;53.178;6.376;2022-08-19T08:38:14;25.90;99.90
51793;DHT22;37850;53.178;6.376;2022-08-19T08:40:45;25.90;99.90
51793;DHT22;37850;53.178;6.376;2022-08-19T08:43:30;26.00;99.90
51793;DHT22;37850;53.178;6.376;2022-08-19T08:46:12;26.00;99.90
51793;DHT22;37850;53.178;6.376;2022-08-19T08:48:44;26.00;99.90
51793;DHT22;37850;53.178;6.376;2022-08-19T08:51:14;26.20;99.90
51793;DHT22;37850;53.178;6.376;2022-08-19T08:53:41;26.30;99.90
51793;DHT22;37850;53.178;6.376;2022-08-19T08:56:08;26.50;99.90
51793;DHT22;37850;53.178;6.376;2022-08-19T08:58:59;26.60;99.90
51793;DHT22;37850;53.178;6.376;2022-08-19T09:01:23;26.70;99.90
51793;DHT22;37850;53.178;6.376;2022-08-19T09:03:49;26.90;99.90
51793;DHT22;37850;53.178;6.376;2022-08-19T09:11:15;27.40;99.90
51793;DHT22;37850;53.178;6.376;2022-08-19T09:13:49;27.50;99.90
51793;DHT22;37850;53.178;6.376;2022-08-19T09:16:20;27.70;99.90
51793;DHT22;37850;53.178;6.376;2022-08-19T09:18:50;27.70;99.90
51793;DHT22;37850;53.178;6.376;2022-08-19T09:21:20;27.80;99.90
51793;DHT22;37850;53.178;6.376;2022-08-19T09:23:46;27.80;99.90
51793;DHT22;37850;53.178;6.376;2022-08-19T09:26:15;27.90;99.90
51793;DHT22;37850;53.178;6.376;2022-08-19T09:28:41;28.00;99.90
51793;DHT22;37850;53.178;6.376;2022-08-19T09:31:10;28.10;99.90
51793;DHT22;37850;53.178;6.376;2022-08-19T09:33:36;28.10;99.90
51793;DHT22;37850;53.178;6.376;2022-08-19T09:36:09;28.30;99.90
51793;DHT22;37850;53.178;6.376;2022-08-19T09:38:35;28.40;99.90
51793;DHT22;37850;53.178;6.376;2022-08-19T09:41:02;28.50;99.90
51793;DHT22;37850;53.178;6.376;2022-08-19T09:43:30;28.50;99.90
51793;DHT22;37850;53.178;6.376;2022-08-19T09:45:56;28.50;99.90
51793;DHT22;37850;53.178;6.376;2022-08-19T09:48:22;28.60;99.90
51793;DHT22;37850;53.178;6.376;2022-08-19T09:50:47;28.50;99.90
51793;DHT22;37850;53.178;6.376;2022-08-19T09:53:13;28.50;99.90
51793;DHT22;37850;53.178;6.376;2022-08-19T09:55:42;28.50;99.90
51793;DHT22;37850;53.178;6.376;2022-08-19T09:58:08;28.50;99.90
51793;DHT22;37850;53.178;6.376;2022-08-19T10:00:34;28.40;99.90
51793;DHT22;37850;53.178;6.376;2022-08-19T10:03:02;28.50;99.90
51793;DHT22;37850;53.178;6.376;2022-08-19T10:05:27;28.50;99.90
51793;DHT22;37850;53.178;6.376;2022-08-19T10:08:11;28.60;99.90
51793;DHT22;37850;53.178;6.376;2022-08-19T10:10:37;28.70;99.90
51793;DHT22;37850;53.178;6.376;2022-08-19T10:13:03;28.80;99.90
51793;DHT22;37850;53.178;6.376;2022-08-19T10:15:29;28.80;99.90
51793;DHT22;37850;53.178;6.376;2022-08-19T10:17:55;28.90;99.90
51793;DHT22;37850;53.178;6.376;2022-08-19T10:20:21;28.90;99.90
51793;DHT22;37850;53.178;6.376;2022-08-19T10:22:47;28.90;99.90
51793;DHT22;37850;53.178;6.376;2022-08-19T10:25:13;28.90;99.90
51793;DHT22;37850;53.178;6.376;2022-08-19T10:27:41;29.00;99.90
51793;DHT22;37850;53.178;6.376;2022-08-19T10:30:07;29.00;99.90
51793;DHT22;37850;53.178;6.376;2022-08-19T10:32:33;29.00;99.90
51793;DHT22;37850;53.178;6.376;2022-08-19T10:34:59;29.00;99.90
51793;DHT22;37850;53.178;6.376;2022-08-19T10:37:26;28.80;99.90
51793;DHT22;37850;53.178;6.376;2022-08-19T10:39:51;28.40;99.90
51793;DHT22;37850;53.178;6.376;2022-08-19T10:42:17;28.20;99.90
51793;DHT22;37850;53.178;6.376;2022-08-19T10:44:44;28.20;99.90
51793;DHT22;37850;53.178;6.376;2022-08-19T10:47:10;28.00;99.90
51793;DHT22;37850;53.178;6.376;2022-08-19T10:49:35;28.10;99.90
51793;DHT22;37850;53.178;6.376;2022-08-19T10:52:21;28.20;99.90
51793;DHT22;37850;53.178;6.376;2022-08-19T10:55:00;28.40;99.90
51793;DHT22;37850;53.178;6.376;2022-08-19T10:57:44;28.60;99.90
51793;DHT22;37850;53.178;6.376;2022-08-19T11:00:13;28.60;99.90
51793;DHT22;37850;53.178;6.376;2022-08-19T11:02:38;28.30;99.90
51793;DHT22;37850;53.178;6.376;2022-08-19T11:05:04;28.00;99.90
51793;DHT22;37850;53.178;6.376;2022-08-19T11:07:33;27.80;99.90
51793;DHT22;37850;53.178;6.376;2022-08-19T11:10:03;27.80;99.90
51793;DHT22;37850;53.178;6.376;2022-08-19T11:15:33;28.30;99.90
51793;DHT22;37850;53.178;6.376;2022-08-19T11:18:17;28.30;99.90
51793;DHT22;37850;53.178;6.376;2022-08-19T11:21:08;28.80;99.90
51793;DHT22;37850;53.178;6.376;2022-08-19T11:23:42;29.00;99.90
51793;DHT22;37850;53.178;6.376;2022-08-19T11:26:16;29.30;99.90
51793;DHT22;37850;53.178;6.376;2022-08-19T11:28:42;29.40;99.90
51793;DHT22;37850;53.178;6.376;2022-08-19T11:31:15;29.50;99.90
51793;DHT22;37850;53.178;6.376;2022-08-19T11:33:41;29.40;99.90
51793;DHT22;37850;53.178;6.376;2022-08-19T11:36:07;29.20;99.90
51793;DHT22;37850;53.178;6.376;2022-08-19T11:38:34;29.10;99.90
51793;DHT22;37850;53.178;6.376;2022-08-19T11:41:01;28.90;99.90
51793;DHT22;37850;53.178;6.376;2022-08-19T11:43:27;28.80;99.90
51793;DHT22;37850;53.178;6.376;2022-08-19T11:45:54;28.50;99.90
51793;DHT22;37850;53.178;6.376;2022-08-19T11:48:21;28.30;99.90
51793;DHT22;37850;53.178;6.376;2022-08-19T11:50:48;28.40;99.90
51793;DHT22;37850;53.178;6.376;2022-08-19T11:53:14;28.60;99.90
51793;DHT22;37850;53.178;6.376;2022-08-19T11:55:40;28.70;99.90
51793;DHT22;37850;53.178;6.376;2022-08-19T11:58:05;29.00;99.90
51793;DHT22;37850;53.178;6.376;2022-08-19T12:00:33;29.20;99.90
51793;DHT22;37850;53.178;6.376;2022-08-19T12:03:01;29.30;99.90
51793;DHT22;37850;53.178;6.376;2022-08-19T12:05:27;29.40;99.90
51793;DHT22;37850;53.178;6.376;2022-08-19T12:07:52;29.40;99.90
51793;DHT22;37850;53.178;6.376;2022-08-19T12:10:19;29.40;99.90
51793;DHT22;37850;53.178;6.376;2022-08-19T12:12:45;29.30;99.90
51793;DHT22;37850;53.178;6.376;2022-08-19T12:15:11;29.50;99.90
51793;DHT22;37850;53.178;6.376;2022-08-19T12:17:37;29.30;99.90
51793;DHT22;37850;53.178;6.376;2022-08-19T12:20:03;29.10;99.90
51793;DHT22;37850;53.178;6.376;2022-08-19T12:22:29;28.80;99.90
51793;DHT22;37850;53.178;6.376;2022-08-19T12:24:55;28.50;99.90
51793;DHT22;37850;53.178;6.376;2022-08-19T12:27:20;28.30;99.90
51793;DHT22;37850;53.178;6.376;2022-08-19T12:29:46;28.10;99.90
51793;DHT22;37850;53.178;6.376;2022-08-19T12:32:12;27.80;99.90
51793;DHT22;37850;53.178;6.376;2022-08-19T12:34:38;27.50;99.90
51793;DHT22;37850;53.178;6.376;2022-08-19T12:37:04;27.20;99.90
51793;DHT22;37850;53.178;6.376;2022-08-19T12:39:34;27.00;99.90
51793;DHT22;37850;53.178;6.376;2022-08-19T12:41:59;26.90;99.90
51793;DHT22;37850;53.178;6.376;2022-08-19T12:44:26;26.80;99.90
51793;DHT22;37850;53.178;6.376;2022-08-19T12:46:51;26.90;99.90
51793;DHT22;37850;53.178;6.376;2022-08-19T12:49:17;26.70;99.90
51793;DHT22;37850;53.178;6.376;2022-08-19T12:51:43;26.60;99.90
51793;DHT22;37850;53.178;6.376;2022-08-19T12:54:08;26.70;99.90
51793;DHT22;37850;53.178;6.376;2022-08-19T12:56:34;26.60;99.90
51793;DHT22;37850;53.178;6.376;2022-08-19T12:59:02;26.60;99.90
51793;DHT22;37850;53.178;6.376;2022-08-19T13:01:28;26.80;99.90
51793;DHT22;37850;53.178;6.376;2022-08-19T13:03:58;26.80;99.90
51793;DHT22;37850;53.178;6.376;2022-08-19T13:06:24;26.90;99.90
51793;DHT22;37850;53.178;6.376;2022-08-19T13:08:49;27.00;99.90
51793;DHT22;37850;53.178;6.376;2022-08-19T13:11:15;27.00;99.90
51793;DHT22;37850;53.178;6.376;2022-08-19T13:13:43;27.00;99.90
51793;DHT22;37850;53.178;6.376;2022-08-19T13:16:09;26.90;99.90
51793;DHT22;37850;53.178;6.376;2022-08-19T13:18:37;26.70;99.90
51793;DHT22;37850;53.178;6.376;2022-08-19T13:21:07;26.50;99.90
51793;DHT22;37850;53.178;6.376;2022-08-19T13:23:33;26.30;99.90
51793;DHT22;37850;53.178;6.376;2022-08-19T13:26:00;26.20;99.90
51793;DHT22;37850;53.178;6.376;2022-08-19T13:28:30;26.10;99.90
51793;DHT22;37850;53.178;6.376;2022-08-19T13:31:19;25.90;99.90
51793;DHT22;37850;53.178;6.376;2022-08-19T13:34:03;25.80;99.90
51793;DHT22;37850;53.178;6.376;2022-08-19T13:36:31;25.60;99.90
51793;DHT22;37850;53.178;6.376;2022-08-19T13:38:57;25.50;99.90
51793;DHT22;37850;53.178;6.376;2022-08-19T13:41:23;25.40;99.90
51793;DHT22;37850;53.178;6.376;2022-08-19T13:43:48;25.30;99.90
51793;DHT22;37850;53.178;6.376;2022-08-19T13:46:14;25.20;99.90
51793;DHT22;37850;53.178;6.376;2022-08-19T13:48:40;25.20;99.90
51793;DHT22;37850;53.178;6.376;2022-08-19T13:51:06;25.00;99.90
51793;DHT22;37850;53.178;6.376;2022-08-19T13:53:38;25.00;99.90
51793;DHT22;37850;53.178;6.376;2022-08-19T13:56:07;25.00;99.90
51793;DHT22;37850;53.178;6.376;2022-08-19T13:58:33;25.00;99.90
51793;DHT22;37850;53.178;6.376;2022-08-19T14:00:59;25.00;99.90
51793;DHT22;37850;53.178;6.376;2022-08-19T14:03:25;25.10;99.90
51793;DHT22;37850;53.178;6.376;2022-08-19T14:05:50;25.10;99.90
51793;DHT22;37850;53.178;6.376;2022-08-19T14:08:16;25.10;99.90
51793;DHT22;37850;53.178;6.376;2022-08-19T14:10:42;25.20;99.90
51793;DHT22;37850;53.178;6.376;2022-08-19T14:13:10;25.40;99.90
51793;DHT22;37850;53.178;6.376;2022-08-19T14:15:35;25.40;99.90
51793;DHT22;37850;53.178;6.376;2022-08-19T14:18:02;25.40;99.90
51793;DHT22;37850;53.178;6.376;2022-08-19T14:20:28;25.40;99.90
51793;DHT22;37850;53.178;6.376;2022-08-19T14:22:54;25.40;99.90
51793;DHT22;37850;53.178;6.376;2022-08-19T14:25:21;25.30;99.90
51793;DHT22;37850;53.178;6.376;2022-08-19T14:27:47;25.30;99.90
51793;DHT22;37850;53.178;6.376;2022-08-19T14:30:14;25.20;99.90
51793;DHT22;37850;53.178;6.376;2022-08-19T14:32:41;25.20;99.90
51793;DHT22;37850;53.178;6.376;2022-08-19T14:35:08;25.20;99.90
51793;DHT22;37850;53.178;6.376;2022-08-19T14:37:34;25.30;99.90
51793;DHT22;37850;53.178;6.376;2022-08-19T14:40:03;25.20;99.90
51793;DHT22;37850;53.178;6.376;2022-08-19T14:42:31;25.30;99.90
51793;DHT22;37850;53.178;6.376;2022-08-19T14:44:57;25.30;99.90
51793;DHT22;37850;53.178;6.376;2022-08-19T14:47:22;25.40;99.90
51793;DHT22;37850;53.178;6.376;2022-08-19T14:49:48;25.50;99.90
51793;DHT22;37850;53.178;6.376;2022-08-19T14:52:14;25.60;99.90
51793;DHT22;37850;53.178;6.376;2022-08-19T14:54:39;25.70;99.90
51793;DHT22;37850;53.178;6.376;2022-08-19T14:57:11;25.80;99.90
51793;DHT22;37850;53.178;6.376;2022-08-19T14:59:36;25.80;99.90
51793;DHT22;37850;53.178;6.376;2022-08-19T15:02:02;25.80;99.90
51793;DHT22;37850;53.178;6.376;2022-08-19T15:04:27;25.80;99.90
51793;DHT22;37850;53.178;6.376;2022-08-19T15:06:53;25.90;99.90
51793;DHT22;37850;53.178;6.376;2022-08-19T15:09:18;26.00;99.90
51793;DHT22;37850;53.178;6.376;2022-08-19T15:11:44;26.00;99.90
51793;DHT22;37850;53.178;6.376;2022-08-19T15:14:10;25.80;99.90
51793;DHT22;37850;53.178;6.376;2022-08-19T15:16:35;25.70;99.90
51793;DHT22;37850;53.178;6.376;2022-08-19T15:19:07;25.50;99.90
51793;DHT22;37850;53.178;6.376;2022-08-19T15:21:32;25.40;99.90
51793;DHT22;37850;53.178;6.376;2022-08-19T15:23:58;25.40;99.90
51793;DHT22;37850;53.178;6.376;2022-08-19T15:26:26;25.50;99.90
51793;DHT22;37850;53.178;6.376;2022-08-19T15:28:52;25.50;99.90
51793;DHT22;37850;53.178;6.376;2022-08-19T15:31:19;25.50;99.90
51793;DHT22;37850;53.178;6.376;2022-08-19T15:33:45;25.60;99.90
51793;DHT22;37850;53.178;6.376;2022-08-19T15:36:11;25.60;99.90
51793;DHT22;37850;53.178;6.376;2022-08-19T15:38:37;25.70;99.90
51793;DHT22;37850;53.178;6.376;2022-08-19T15:41:04;25.80;99.90
51793;DHT22;37850;53.178;6.376;2022-08-19T15:43:49;25.90;99.90